Time;durP1;ratioP1;P1;durP2;ratioP2;P2;SDS_P1;SDS_P2;PMS_P1;PMS_P2;Temp;Humidity;BMP_temperature;BMP_pressure;BME280_temperature;BME280_humidity;BME280_pressure;Samples;Min_cycle;Max_cycle;Signal;HPM_P1;HPM_P2
2022/07/17 00:01:18;;;;;;;8.00;1.70;;;17.50;53.40;;;;;;5002475;28;20732;-82
2022/07/17 00:03:43;;;;;;;5.90;3.00;;;17.50;54.70;;;;;;4998663;28;20201;-81
2022/07/17 00:06:09;;;;;;;6.23;1.87;;;17.50;56.20;;;;;;5003108;28;20186;-82
2022/07/17 00:08:35;;;;;;;5.67;2.40;;;17.50;57.20;;;;;;5002675;28;20281;-82
2022/07/17 00:11:01;;;;;;;6.07;2.70;;;17.40;58.80;;;;;;5001751;28;20180;-82
2022/07/17 00:13:27;;;;;;;2.83;1.90;;;17.40;59.90;;;;;;5005889;28;20249;-81
2022/07/17 00:15:52;;;;;;;6.13;2.03;;;17.30;62.10;;;;;;5005085;28;20566;-82
2022/07/17 00:18:18;;;;;;;7.23;2.10;;;17.30;63.50;;;;;;5005406;28;20603;-82
2022/07/17 00:20:44;;;;;;;7.57;2.03;;;17.30;66.00;;;;;;5008923;28;20217;-81
2022/07/17 00:23:10;;;;;;;4.70;1.87;;;17.30;68.50;;;;;;5008411;28;20904;-83
2022/07/17 00:25:35;;;;;;;2.50;1.80;;;17.30;69.20;;;;;;5008057;28;20193;-81
2022/07/17 00:28:01;;;;;;;2.50;1.30;;;17.20;72.90;;;;;;5006793;28;20507;-82
2022/07/17 00:30:27;;;;;;;3.53;1.73;;;17.10;75.50;;;;;;5007480;28;20214;-81
2022/07/17 00:32:52;;;;;;;4.60;1.80;;;17.00;76.80;;;;;;5010115;28;20442;-81
2022/07/17 00:35:18;;;;;;;3.37;1.43;;;16.90;80.80;;;;;;5007374;28;20556;-81
2022/07/17 00:37:46;;;;;;;2.90;1.60;;;16.90;81.40;;;;;;5007732;28;20730;-81
2022/07/17 00:40:16;;;;;;;3.63;2.07;;;16.90;84.10;;;;;;5006620;28;20213;-81
2022/07/17 00:42:42;;;;;;;3.13;1.90;;;16.90;86.60;;;;;;5002633;28;20538;-81
2022/07/17 00:45:09;;;;;;;3.17;1.70;;;16.80;89.70;;;;;;5007401;28;20472;-81
2022/07/17 00:47:48;;;;;;;5.80;2.03;;;16.80;90.80;;;;;;5002737;28;20525;-81
2022/07/17 00:50:14;;;;;;;3.63;2.00;;;16.80;92.00;;;;;;4999476;28;20464;-81
2022/07/17 00:52:39;;;;;;;2.80;1.70;;;16.80;92.90;;;;;;5006411;28;20444;-81
2022/07/17 00:55:05;;;;;;;3.93;1.97;;;16.70;94.40;;;;;;5006259;28;20457;-81
2022/07/17 00:57:31;;;;;;;4.50;2.23;;;16.70;99.90;;;;;;5006883;28;20193;-82
2022/07/17 00:59:56;;;;;;;6.20;2.13;;;16.70;96.20;;;;;;5002838;28;20468;-82
2022/07/17 01:02:22;;;;;;;4.47;2.23;;;16.60;97.50;;;;;;5006827;28;20194;-81
2022/07/17 01:04:47;;;;;;;2.93;1.90;;;16.60;98.30;;;;;;5004872;28;20187;-81
2022/07/17 01:07:13;;;;;;;3.27;1.80;;;16.60;99.00;;;;;;5004119;28;20221;-82
2022/07/17 01:09:39;;;;;;;3.73;1.83;;;16.60;99.90;;;;;;5006527;28;20239;-82
2022/07/17 01:12:07;;;;;;;12.27;2.20;;;16.60;99.90;;;;;;5006201;28;20190;-82
2022/07/17 01:14:32;;;;;;;5.40;2.00;;;16.50;99.90;;;;;;5002230;28;20187;-81
2022/07/17 01:16:59;;;;;;;4.30;2.03;;;16.50;99.90;;;;;;5007362;28;20867;-81
2022/07/17 01:19:25;;;;;;;5.87;1.97;;;16.40;99.90;;;;;;5005902;28;20214;-81
2022/07/17 01:21:50;;;;;;;4.83;2.20;;;16.40;99.90;;;;;;5006520;28;20498;-81
2022/07/17 01:24:17;;;;;;;3.40;1.97;;;16.40;99.90;;;;;;5002267;28;20201;-81
2022/07/17 01:26:44;;;;;;;3.00;1.70;;;16.40;99.90;;;;;;5005827;28;20198;-81
2022/07/17 01:29:12;;;;;;;5.23;2.17;;;16.40;99.90;;;;;;5005610;28;20480;-81
2022/07/17 01:31:39;;;;;;;3.97;2.20;;;16.30;99.90;;;;;;5004175;28;20446;-81
2022/07/17 01:34:09;;;;;;;5.77;2.03;;;16.30;99.90;;;;;;5005422;28;20436;-81
2022/07/17 01:36:35;;;;;;;7.70;2.40;;;16.30;99.90;;;;;;5004543;28;20432;-82
2022/07/17 01:39:02;;;;;;;4.20;1.90;;;16.20;99.90;;;;;;5008970;28;20474;-81
2022/07/17 01:41:28;;;;;;;11.07;3.00;;;16.10;99.90;;;;;;5004039;28;20441;-82
2022/07/17 01:43:53;;;;;;;7.90;2.50;;;16.10;99.90;;;;;;5009278;28;20449;-81
2022/07/17 01:46:19;;;;;;;4.90;2.10;;;16.10;99.90;;;;;;5000241;28;20197;-81
2022/07/17 01:48:45;;;;;;;3.30;2.43;;;16.00;99.90;;;;;;5006647;28;20228;-82
2022/07/17 01:51:10;;;;;;;5.60;2.20;;;16.10;99.90;;;;;;5003804;28;20189;-81
2022/07/17 01:53:36;;;;;;;5.73;2.10;;;16.10;99.90;;;;;;5002402;28;20400;-82
2022/07/17 01:56:02;;;;;;;8.93;2.47;;;16.00;99.90;;;;;;5005990;28;20576;-81
2022/07/17 01:58:27;;;;;;;10.13;2.60;;;16.00;99.90;;;;;;5001864;28;20208;-81
2022/07/17 02:00:53;;;;;;;15.67;3.03;;;15.90;99.90;;;;;;5002522;28;20437;-81
2022/07/17 02:03:19;;;;;;;7.57;2.80;;;15.90;99.90;;;;;;5004869;28;20208;-81
2022/07/17 02:05:45;;;;;;;4.10;2.20;;;15.90;99.90;;;;;;5006063;28;20563;-81
2022/07/17 02:08:11;;;;;;;5.90;3.00;;;15.80;99.90;;;;;;5002821;28;21063;-81
2022/07/17 02:10:37;;;;;;;4.63;2.27;;;15.80;99.90;;;;;;5003055;28;20480;-81
2022/07/17 02:13:02;;;;;;;4.63;2.33;;;15.80;99.90;;;;;;5006761;28;20201;-81
2022/07/17 02:15:28;;;;;;;9.37;2.40;;;15.80;99.90;;;;;;5004345;28;20186;-81
2022/07/17 02:17:53;;;;;;;3.83;2.20;;;15.80;99.90;;;;;;5002144;28;20716;-81
2022/07/17 02:20:19;;;;;;;7.20;2.80;;;15.70;99.90;;;;;;5004852;28;20628;-82
2022/07/17 02:22:45;;;;;;;5.57;2.40;;;15.70;99.90;;;;;;5006148;28;20559;-81
2022/07/17 02:25:12;;;;;;;4.97;2.67;;;15.70;99.90;;;;;;5005384;28;20821;-81
2022/07/17 02:27:38;;;;;;;6.00;2.60;;;15.60;99.90;;;;;;5007392;28;20209;-81
2022/07/17 02:30:07;;;;;;;8.07;2.37;;;15.60;99.90;;;;;;5005572;28;20455;-81
2022/07/17 02:32:32;;;;;;;8.00;2.40;;;15.60;99.90;;;;;;5007461;28;20452;-82
2022/07/17 02:34:58;;;;;;;6.20;2.30;;;15.60;99.90;;;;;;5007974;28;20509;-81
2022/07/17 02:37:24;;;;;;;5.03;2.00;;;15.60;99.90;;;;;;5003375;28;20190;-81
2022/07/17 02:39:52;;;;;;;9.90;2.30;;;15.60;99.90;;;;;;5004248;28;20292;-81
2022/07/17 02:42:22;;;;;;;4.70;2.17;;;15.60;99.90;;;;;;5005649;28;20208;-81
2022/07/17 02:44:48;;;;;;;5.03;1.90;;;15.60;99.90;;;;;;5005288;28;20437;-81
2022/07/17 02:47:21;;;;;;;3.57;2.10;;;15.50;99.90;;;;;;5007719;28;20486;-81
2022/07/17 02:49:47;;;;;;;5.33;2.73;;;15.50;99.90;;;;;;5004862;28;20769;-81
2022/07/17 02:52:13;;;;;;;4.87;2.37;;;15.50;99.90;;;;;;5007162;28;20515;-81
2022/07/17 02:54:38;;;;;;;6.80;2.47;;;15.50;99.90;;;;;;5009919;28;20217;-81
2022/07/17 02:57:04;;;;;;;9.60;2.30;;;15.40;99.90;;;;;;5006473;28;20235;-81
2022/07/17 02:59:29;;;;;;;7.03;2.30;;;15.40;99.90;;;;;;5006747;28;20242;-81
2022/07/17 03:01:55;;;;;;;4.90;2.30;;;15.40;99.90;;;;;;5003348;28;20189;-81
2022/07/17 03:04:20;;;;;;;3.10;2.30;;;15.40;99.90;;;;;;5008023;28;20251;-81
2022/07/17 03:06:46;;;;;;;3.47;2.43;;;15.30;99.90;;;;;;5004944;28;20455;-81
2022/07/17 03:09:12;;;;;;;4.90;2.10;;;15.30;99.90;;;;;;5002878;28;20232;-81
2022/07/17 03:11:37;;;;;;;5.93;2.40;;;15.30;99.90;;;;;;5007071;28;20239;-81
2022/07/17 03:14:06;;;;;;;5.77;2.40;;;15.20;99.90;;;;;;5007491;28;20190;-81
2022/07/17 03:16:31;;;;;;;5.20;1.63;;;15.20;99.90;;;;;;5001237;28;20219;-81
2022/07/17 03:18:57;;;;;;;5.63;2.30;;;15.20;99.90;;;;;;5005727;28;20503;-82
2022/07/17 03:21:25;;;;;;;4.13;2.40;;;15.20;99.90;;;;;;5003549;28;20183;-81
2022/07/17 03:23:53;;;;;;;6.03;2.23;;;15.20;99.90;;;;;;5008238;28;20546;-81
2022/07/17 03:26:18;;;;;;;8.83;3.07;;;15.20;99.90;;;;;;5004428;28;20437;-81
2022/07/17 03:28:44;;;;;;;4.20;2.67;;;15.20;99.90;;;;;;5001292;28;20468;-81
2022/07/17 03:31:09;;;;;;;3.93;2.40;;;15.10;99.90;;;;;;5005303;28;20269;-81
2022/07/17 03:33:35;;;;;;;5.17;1.80;;;15.10;99.90;;;;;;5004341;28;20216;-81
2022/07/17 03:36:00;;;;;;;4.37;2.30;;;15.10;99.90;;;;;;5006097;28;20267;-81
2022/07/17 03:38:26;;;;;;;5.90;2.13;;;15.10;99.90;;;;;;5005440;28;20258;-81
2022/07/17 03:40:51;;;;;;;8.93;2.63;;;15.10;99.90;;;;;;5003760;28;20188;-81
2022/07/17 03:43:17;;;;;;;11.73;2.73;;;15.10;99.90;;;;;;5008569;28;20196;-81
2022/07/17 03:45:43;;;;;;;4.90;1.80;;;15.00;99.90;;;;;;5003467;28;20286;-82
2022/07/17 03:48:11;;;;;;;4.77;2.60;;;15.00;99.90;;;;;;5011268;28;20210;-81
2022/07/17 03:50:37;;;;;;;9.83;3.23;;;15.00;99.90;;;;;;5010871;28;20183;-81
2022/07/17 03:53:02;;;;;;;4.37;2.40;;;15.00;99.90;;;;;;5008242;28;20450;-82
2022/07/17 03:55:31;;;;;;;7.00;2.50;;;15.00;99.90;;;;;;5006512;28;21027;-81
2022/07/17 03:57:56;;;;;;;4.90;2.73;;;15.00;99.90;;;;;;5009033;28;20187;-81
2022/07/17 04:00:25;;;;;;;4.23;2.60;;;14.90;99.90;;;;;;5007521;28;20446;-81
2022/07/17 04:02:51;;;;;;;5.97;2.50;;;14.90;99.90;;;;;;5009569;28;20686;-81
2022/07/17 04:05:16;;;;;;;4.37;2.50;;;15.00;99.90;;;;;;5005852;28;20444;-82
2022/07/17 04:07:43;;;;;;;4.50;2.40;;;15.00;99.90;;;;;;5006048;28;20206;-82
2022/07/17 04:10:11;;;;;;;4.70;2.40;;;15.00;99.90;;;;;;5012345;28;20233;-81
2022/07/17 04:12:40;;;;;;;8.90;3.67;;;15.00;99.90;;;;;;5009443;28;20935;-81
2022/07/17 04:15:07;;;;;;;3.47;2.73;;;15.10;99.90;;;;;;5008567;28;20470;-81
2022/07/17 04:17:32;;;;;;;5.33;2.50;;;15.10;99.90;;;;;;5012723;28;20494;-81
2022/07/17 04:19:58;;;;;;;4.93;2.50;;;15.20;99.90;;;;;;5008884;28;20459;-81
2022/07/17 04:22:24;;;;;;;6.57;2.90;;;15.20;99.90;;;;;;5011065;28;20192;-82
2022/07/17 04:24:50;;;;;;;6.27;3.17;;;15.30;99.90;;;;;;5008780;28;20197;-81
2022/07/17 04:27:15;;;;;;;5.67;2.70;;;15.30;99.90;;;;;;5009095;28;20436;-81
2022/07/17 04:29:41;;;;;;;4.97;2.90;;;15.30;99.90;;;;;;5005967;28;20575;-82
2022/07/17 04:32:07;;;;;;;3.63;2.53;;;15.40;99.90;;;;;;5007579;28;20188;-82
2022/07/17 04:34:33;;;;;;;6.80;2.60;;;15.40;99.90;;;;;;5027572;28;20189;-81
2022/07/17 04:37:00;;;;;;;6.00;2.87;;;15.50;99.90;;;;;;5005947;28;20197;-82
2022/07/17 04:39:26;;;;;;;9.73;3.03;;;15.50;99.90;;;;;;5008461;28;20466;-81
2022/07/17 04:41:51;;;;;;;5.37;2.90;;;15.40;99.90;;;;;;5014067;28;20448;-82
2022/07/17 04:44:17;;;;;;;7.93;2.93;;;15.50;99.90;;;;;;5006376;28;20197;-82
2022/07/17 04:46:43;;;;;;;6.67;2.90;;;15.50;99.90;;;;;;5005797;28;20208;-81
2022/07/17 04:49:09;;;;;;;8.13;3.17;;;15.60;99.90;;;;;;5015938;28;20572;-81
2022/07/17 04:51:34;;;;;;;6.10;3.10;;;15.70;99.90;;;;;;5006730;28;20186;-82
2022/07/17 04:54:00;;;;;;;17.83;3.33;;;15.70;99.90;;;;;;5006412;28;20236;-81
2022/07/17 04:56:25;;;;;;;3.83;2.77;;;15.80;99.90;;;;;;5010555;28;20194;-82
2022/07/17 04:58:51;;;;;;;8.00;3.23;;;15.90;99.90;;;;;;5006728;28;20281;-82
2022/07/17 05:01:16;;;;;;;11.20;3.63;;;16.00;99.90;;;;;;5008361;28;20231;-82
2022/07/17 05:03:42;;;;;;;6.33;2.73;;;16.10;99.90;;;;;;5006459;28;20197;-82
2022/07/17 05:06:09;;;;;;;4.23;2.87;;;16.10;99.90;;;;;;5011428;28;20182;-82
2022/07/17 05:08:35;;;;;;;9.67;3.37;;;16.20;99.90;;;;;;5024560;23;20229;-88
2022/07/17 05:11:00;;;;;;;6.00;3.17;;;16.30;99.90;;;;;;5024803;28;20445;-85
2022/07/17 05:13:26;;;;;;;6.27;2.70;;;16.50;99.90;;;;;;5029209;28;20475;-85
2022/07/17 05:15:52;;;;;;;5.13;2.70;;;16.60;99.90;;;;;;5025228;28;20241;-86
2022/07/17 05:18:17;;;;;;;7.63;3.27;;;16.60;99.90;;;;;;5028589;28;20604;-85
2022/07/17 05:20:43;;;;;;;6.00;3.10;;;16.80;99.90;;;;;;5007034;28;20211;-85
2022/07/17 05:23:08;;;;;;;8.43;3.30;;;16.90;99.90;;;;;;5010997;28;20195;-88
2022/07/17 05:25:34;;;;;;;9.60;2.80;;;17.10;99.90;;;;;;5010045;28;20709;-85
2022/07/17 05:28:01;;;;;;;8.60;3.80;;;17.20;99.90;;;;;;5009945;28;20226;-87
2022/07/17 05:30:27;;;;;;;7.50;3.30;;;17.30;99.90;;;;;;5007729;28;20212;-85
2022/07/17 05:32:52;;;;;;;4.03;3.00;;;17.40;99.90;;;;;;5010635;28;20430;-85
2022/07/17 05:35:18;;;;;;;8.20;3.03;;;17.50;99.90;;;;;;5009496;28;20218;-85
2022/07/17 05:37:43;;;;;;;7.40;3.30;;;17.60;99.90;;;;;;5009368;28;20207;-86
2022/07/17 05:40:09;;;;;;;4.77;2.67;;;17.70;99.90;;;;;;5010956;28;20259;-84
2022/07/17 05:42:34;;;;;;;7.07;3.03;;;17.90;99.90;;;;;;5012321;28;20195;-85
2022/07/17 05:45:00;;;;;;;8.53;3.20;;;18.00;99.90;;;;;;5012732;28;20228;-85
2022/07/17 05:47:25;;;;;;;6.33;3.60;;;18.20;99.90;;;;;;5012125;28;20565;-86
2022/07/17 05:49:51;;;;;;;6.50;3.40;;;18.40;99.90;;;;;;5012400;28;20209;-85
2022/07/17 05:52:17;;;;;;;5.83;3.07;;;18.50;99.90;;;;;;5009468;28;20661;-86
2022/07/17 05:54:43;;;;;;;7.67;3.30;;;18.70;99.90;;;;;;5012553;28;20187;-86
2022/07/17 05:57:08;;;;;;;7.23;3.43;;;18.80;99.90;;;;;;5011246;28;20189;-85
2022/07/17 05:59:34;;;;;;;7.53;3.30;;;19.00;99.90;;;;;;5011466;28;20242;-86
2022/07/17 06:02:00;;;;;;;7.10;2.87;;;19.10;99.90;;;;;;5014590;28;20196;-86
2022/07/17 06:04:25;;;;;;;9.83;2.90;;;19.40;99.90;;;;;;5013509;28;20195;-85
2022/07/17 06:06:51;;;;;;;5.30;3.87;;;20.00;99.90;;;;;;5011342;28;20269;-87
2022/07/17 06:09:17;;;;;;;9.80;3.00;;;21.30;99.90;;;;;;5010884;28;20234;-86
2022/07/17 06:11:42;;;;;;;6.30;3.20;;;24.50;99.90;;;;;;5010808;28;20195;-86
2022/07/17 06:14:08;;;;;;;5.70;2.80;;;28.40;99.90;;;;;;5008797;28;20190;-87
2022/07/17 06:16:34;;;;;;;4.80;3.07;;;32.20;99.90;;;;;;5005332;28;20290;-87
2022/07/17 06:19:00;;;;;;;9.53;2.67;;;35.30;99.90;;;;;;5009574;28;20536;-87
2022/07/17 06:21:26;;;;;;;7.50;2.97;;;37.40;99.90;;;;;;5007678;28;20206;-86
2022/07/17 06:23:51;;;;;;;5.50;2.53;;;39.20;99.90;;;;;;5009788;28;20282;-87
2022/07/17 06:26:17;;;;;;;9.00;2.80;;;40.70;99.90;;;;;;5009038;28;20191;-87
2022/07/17 06:28:43;;;;;;;5.70;2.43;;;41.80;99.90;;;;;;5009746;28;20219;-86
2022/07/17 06:31:08;;;;;;;6.10;2.60;;;42.70;95.90;;;;;;5009485;28;20182;-87
2022/07/17 06:33:34;;;;;;;5.20;2.67;;;43.40;90.30;;;;;;5006242;28;20195;-87
2022/07/17 06:36:00;;;;;;;4.80;2.20;;;44.10;80.40;;;;;;5011228;28;20278;-87
2022/07/17 06:38:26;;;;;;;5.97;2.33;;;44.80;70.40;;;;;;5007992;28;20886;-87
2022/07/17 06:40:51;;;;;;;5.60;2.47;;;45.40;61.10;;;;;;5009701;28;20193;-89
2022/07/17 06:43:17;;;;;;;7.07;2.33;;;45.60;54.80;;;;;;5009409;28;20206;-88
2022/07/17 06:45:43;;;;;;;6.90;2.27;;;46.80;50.60;;;;;;5014954;28;20240;-87
2022/07/17 06:48:08;;;;;;;7.00;2.13;;;47.90;47.00;;;;;;5009639;28;20753;-88
2022/07/17 06:50:34;;;;;;;5.23;1.90;;;48.30;41.90;;;;;;5011402;28;20234;-88
2022/07/17 06:53:00;;;;;;;7.43;2.00;;;50.10;40.40;;;;;;5011233;28;20610;-89
2022/07/17 06:55:25;;;;;;;5.77;2.10;;;52.10;38.50;;;;;;5008941;28;20187;-88
2022/07/17 06:57:51;;;;;;;3.08;1.80;;;53.80;36.30;;;;;;5011800;28;20220;-89
2022/07/17 07:00:19;;;;;;;5.80;2.65;;;54.90;32.80;;;;;;5014907;28;20214;-88
2022/07/17 07:02:45;;;;;;;2.65;1.95;;;56.10;30.30;;;;;;5005248;28;20232;-88
2022/07/17 07:05:11;;;;;;;9.40;2.40;;;57.10;27.80;;;;;;5010637;28;20175;-88
2022/07/17 07:07:36;;;;;;;7.68;3.30;;;58.00;26.20;;;;;;5010901;28;20185;-86
2022/07/17 07:10:02;;;;;;;9.23;2.22;;;59.00;25.60;;;;;;5008234;28;20214;-87
2022/07/17 07:12:28;;;;;;;7.00;2.10;;;59.10;22.70;;;;;;5010569;28;20183;-86
2022/07/17 07:14:54;;;;;;;5.63;2.30;;;59.70;20.90;;;;;;5012427;28;20598;-88
2022/07/17 07:17:20;;;;;;;5.45;2.22;;;59.90;18.90;;;;;;5008457;28;20194;-86
2022/07/17 07:19:45;;;;;;;4.13;1.85;;;60.30;18.00;;;;;;5009745;28;20242;-86
2022/07/17 07:22:11;;;;;;;6.68;2.40;;;60.80;17.20;;;;;;5014762;28;20261;-84
2022/07/17 07:24:36;;;;;;;5.78;2.33;;;61.20;16.10;;;;;;5016857;28;20182;-87
2022/07/17 07:27:02;;;;;;;7.25;2.13;;;60.90;14.10;;;;;;5014935;28;20182;-87
2022/07/17 07:29:28;;;;;;;3.05;2.00;;;61.40;14.00;;;;;;5015174;28;20216;-87
2022/07/17 07:31:54;;;;;;;6.28;2.08;;;61.70;13.70;;;;;;5014408;28;20190;-87
2022/07/17 07:34:19;;;;;;;6.20;2.08;;;61.90;12.20;;;;;;5018012;28;20680;-84
2022/07/17 07:36:45;;;;;;;5.90;2.00;;;61.90;11.40;;;;;;5012850;28;20642;-85
2022/07/17 07:39:10;;;;;;;2.97;1.90;;;61.40;9.70;;;;;;5014821;28;20214;-84
2022/07/17 07:41:36;;;;;;;9.00;2.17;;;61.40;8.20;;;;;;5013356;28;20627;-84
2022/07/17 07:44:01;;;;;;;4.13;1.92;;;61.20;7.70;;;;;;5014737;28;20186;-84
2022/07/17 07:46:27;;;;;;;4.10;1.55;;;61.70;7.10;;;;;;5015203;28;20635;-84
2022/07/17 07:48:53;;;;;;;3.60;1.92;;;61.90;7.00;;;;;;5025740;28;20221;-84
2022/07/17 07:51:18;;;;;;;2.47;1.65;;;61.90;6.50;;;;;;5016115;28;20182;-84
2022/07/17 07:53:44;;;;;;;10.10;2.35;;;62.10;6.10;;;;;;5015729;28;20202;-84
2022/07/17 07:56:09;;;;;;;3.70;2.25;;;62.30;6.30;;;;;;5015672;28;20218;-86
2022/07/17 07:58:35;;;;;;;7.55;2.20;;;62.40;6.20;;;;;;5013919;28;20296;-84
2022/07/17 08:01:00;;;;;;;5.15;1.73;;;62.60;5.90;;;;;;5012689;28;20210;-84
2022/07/17 08:03:26;;;;;;;4.85;1.67;;;62.90;5.20;;;;;;5012363;28;20228;-85
2022/07/17 08:05:51;;;;;;;4.47;2.00;;;63.00;5.00;;;;;;5013570;28;20179;-85
2022/07/17 08:08:17;;;;;;;4.63;1.75;;;62.90;13.80;;;;;;5012783;28;20182;-84
2022/07/17 08:10:42;;;;;;;8.70;1.63;;;63.00;3.70;;;;;;5009146;28;20220;-85
2022/07/17 08:13:08;;;;;;;3.70;1.60;;;62.50;2.40;;;;;;5009387;28;20183;-85
2022/07/17 08:15:33;;;;;;;4.07;1.98;;;62.70;1.60;;;;;;5010578;28;20186;-84
2022/07/17 08:17:59;;;;;;;6.70;1.88;;;62.40;1.20;;;;;;5011942;28;20261;-83
2022/07/17 08:20:25;;;;;;;3.03;1.55;;;62.40;1.00;;;;;;5012050;28;20202;-84
2022/07/17 08:22:50;;;;;;;8.55;1.67;;;62.30;1.00;;;;;;5019161;28;20238;-84
2022/07/17 08:25:16;;;;;;;4.13;1.50;;;62.30;1.00;;;;;;5023515;28;20235;-84
2022/07/17 08:27:43;;;;;;;3.35;1.42;;;62.20;1.00;;;;;;5006644;28;20182;-84
2022/07/17 08:30:11;;;;;;;2.78;1.58;;;61.90;1.00;;;;;;5010692;28;20240;-85
2022/07/17 08:32:37;;;;;;;5.35;1.48;;;61.60;1.00;;;;;;5011581;28;20210;-85
2022/07/17 08:35:03;;;;;;;5.25;1.67;;;61.00;1.00;;;;;;5009770;28;20221;-85
2022/07/17 08:37:29;;;;;;;4.18;1.70;;;60.60;1.00;;;;;;5009087;28;20209;-85
2022/07/17 08:39:55;;;;;;;3.53;1.60;;;60.70;1.00;;;;;;5004124;28;20202;-85
2022/07/17 08:42:21;;;;;;;2.05;1.40;;;60.60;1.00;;;;;;5010618;28;20179;-84
2022/07/17 08:44:47;;;;;;;7.60;2.40;;;60.40;1.00;;;;;;5004295;28;20186;-85
2022/07/17 08:47:14;;;;;;;5.57;2.00;;;59.80;1.00;;;;;;5007772;28;20198;-85
2022/07/17 08:49:48;;;;;;;5.38;1.98;;;59.60;1.00;;;;;;5009236;28;20213;-84
2022/07/17 08:52:15;;;;;;;3.67;1.52;;;59.30;1.00;;;;;;5010220;28;20851;-83
2022/07/17 08:54:41;;;;;;;2.72;1.83;;;58.70;1.00;;;;;;5008863;28;20194;-85
2022/07/17 08:57:09;;;;;;;3.13;1.60;;;58.60;1.00;;;;;;5007306;28;20685;-85
2022/07/17 08:59:35;;;;;;;2.67;1.42;;;59.00;1.00;;;;;;5008676;28;20210;-83
2022/07/17 09:02:00;;;;;;;2.53;1.50;;;58.40;1.00;;;;;;5010184;28;20186;-85
2022/07/17 09:04:27;;;;;;;3.35;1.70;;;58.30;1.00;;;;;;5009952;28;20213;-84
2022/07/17 09:07:04;;;;;;;3.05;1.83;;;58.10;1.00;;;;;;5008975;28;20186;-85
2022/07/17 09:09:30;;;;;;;3.38;1.50;;;57.70;1.00;;;;;;5007917;28;20233;-85
2022/07/17 09:11:58;;;;;;;6.47;1.75;;;57.80;1.00;;;;;;5008033;28;20182;-85
2022/07/17 09:14:39;;;;;;;3.50;1.70;;;57.70;1.00;;;;;;5011053;28;20182;-86
2022/07/17 09:17:05;;;;;;;3.38;1.67;;;57.60;1.00;;;;;;5006223;28;20187;-85
2022/07/17 09:19:34;;;;;;;2.88;1.60;;;57.00;1.00;;;;;;5008825;28;20690;-84
2022/07/17 09:22:08;;;;;;;2.63;1.52;;;57.00;1.00;;;;;;5009282;28;20269;-84
2022/07/17 09:24:57;;;;;;;4.15;2.10;;;57.00;1.00;;;;;;5011382;28;20169;-84
2022/07/17 09:27:23;;;;;;;4.03;1.70;;;57.00;1.00;;;;;;5010453;28;20269;-84
2022/07/17 09:29:59;;;;;;;3.55;1.70;;;57.00;1.00;;;;;;5010960;28;20756;-84
2022/07/17 09:32:27;;;;;;;3.10;1.63;;;56.90;1.00;;;;;;5008363;28;20206;-83
2022/07/17 09:34:55;;;;;;;5.85;2.08;;;56.70;1.00;;;;;;5008146;28;20217;-84
2022/07/17 09:37:25;;;;;;;2.13;1.42;;;56.40;1.00;;;;;;5010192;28;20205;-84
2022/07/17 09:39:51;;;;;;;2.42;1.40;;;56.10;1.00;;;;;;5010722;28;20222;-84
2022/07/17 09:42:25;;;;;;;6.13;2.25;;;55.90;1.00;;;;;;5008317;28;20609;-84
2022/07/17 09:45:05;;;;;;;7.32;1.95;;;55.60;1.00;;;;;;5010847;28;20212;-84
2022/07/17 09:47:32;;;;;;;3.67;1.70;;;55.20;1.00;;;;;;5011118;28;20198;-84
2022/07/17 09:49:59;;;;;;;2.63;1.70;;;54.80;1.00;;;;;;5013951;28;20293;-84
2022/07/17 09:52:27;;;;;;;3.43;1.77;;;54.50;1.00;;;;;;5011042;28;20205;-83
2022/07/17 09:54:54;;;;;;;6.03;2.03;;;54.00;1.00;;;;;;5013013;28;20239;-84
2022/07/17 09:57:24;;;;;;;3.30;1.80;;;53.90;1.00;;;;;;5011285;28;20627;-84
2022/07/17 09:59:52;;;;;;;8.07;1.87;;;53.40;1.00;;;;;;5008327;28;20590;-84
2022/07/17 10:02:19;;;;;;;3.37;1.83;;;52.10;1.00;;;;;;5007846;28;20438;-84
2022/07/17 10:04:46;;;;;;;4.00;1.93;;;51.10;1.00;;;;;;5009538;28;21880;-85
2022/07/17 10:07:12;;;;;;;4.77;2.20;;;51.00;1.00;;;;;;5009050;28;20464;-83
2022/07/17 10:09:39;;;;;;;4.40;2.00;;;50.80;1.00;;;;;;5013103;28;20475;-83
2022/07/17 10:12:06;;;;;;;3.97;1.50;;;51.00;1.00;;;;;;5010384;28;20182;-84
2022/07/17 10:14:32;;;;;;;4.83;2.47;;;51.00;1.00;;;;;;5004422;28;20837;-84
2022/07/17 10:17:12;;;;;;;5.00;1.80;;;51.10;1.00;;;;;;5008582;28;20491;-84
2022/07/17 10:19:55;;;;;;;3.10;1.50;;;51.10;1.00;;;;;;5004586;28;20469;-82
2022/07/17 10:22:21;;;;;;;3.87;2.00;;;50.70;1.00;;;;;;5007429;28;20460;-84
2022/07/17 10:24:54;;;;;;;5.97;1.67;;;50.70;1.00;;;;;;5009272;28;20429;-84
2022/07/17 10:27:19;;;;;;;4.37;1.87;;;50.10;1.00;;;;;;5009408;28;20435;-83
2022/07/17 10:29:45;;;;;;;6.40;1.80;;;49.90;1.00;;;;;;5009812;28;20461;-84
2022/07/17 10:32:18;;;;;;;6.90;1.83;;;49.30;1.00;;;;;;5012122;28;20188;-84
2022/07/17 10:34:52;;;;;;;4.20;1.97;;;49.10;1.00;;;;;;5009181;28;20258;-83
2022/07/17 10:37:27;;;;;;;4.60;1.80;;;49.20;1.00;;;;;;5008005;28;20949;-84
2022/07/17 10:40:05;;;;;;;6.93;2.60;;;49.40;1.00;;;;;;5007658;28;20543;-84
2022/07/17 10:42:50;;;;;;;2.07;1.60;;;49.40;1.00;;;;;;5009569;28;20512;-84
2022/07/17 10:45:21;;;;;;;4.37;1.87;;;49.80;1.00;;;;;;5021291;28;20441;-84
2022/07/17 10:47:53;;;;;;;3.53;1.50;;;49.90;1.00;;;;;;5012674;28;21567;-84
2022/07/17 10:50:22;;;;;;;4.90;1.70;;;49.40;1.00;;;;;;5007145;28;20968;-84
2022/07/17 10:53:09;;;;;;;4.83;1.63;;;48.80;1.00;;;;;;5006556;28;20437;-83
2022/07/17 10:55:41;;;;;;;3.90;1.73;;;49.00;1.00;;;;;;5008637;28;20576;-84
2022/07/17 10:58:23;;;;;;;4.23;1.83;;;49.00;1.00;;;;;;5007198;28;20560;-84
2022/07/17 11:01:02;;;;;;;2.13;1.57;;;48.90;1.00;;;;;;5008730;28;20508;-85
2022/07/17 11:03:29;;;;;;;2.07;1.67;;;48.40;1.00;;;;;;5004212;28;20516;-84
2022/07/17 11:05:54;;;;;;;3.50;1.87;;;47.90;1.00;;;;;;5009147;28;20445;-84
2022/07/17 11:08:20;;;;;;;3.60;1.50;;;47.00;1.00;;;;;;5007103;28;20434;-84
2022/07/17 11:10:47;;;;;;;2.60;1.57;;;46.20;1.00;;;;;;5008182;28;20209;-84
2022/07/17 11:13:15;;;;;;;3.83;1.80;;;45.90;1.00;;;;;;5003302;28;20439;-84
2022/07/17 11:15:48;;;;;;;4.80;1.60;;;45.60;1.00;;;;;;5006442;28;20460;-84
2022/07/17 11:18:23;;;;;;;3.77;1.70;;;45.50;1.00;;;;;;5003202;28;20977;-84
2022/07/17 11:21:00;;;;;;;3.30;1.57;;;45.00;1.00;;;;;;5005497;28;20446;-82
2022/07/17 11:23:28;;;;;;;5.03;1.37;;;44.30;1.00;;;;;;5010585;28;20434;-84
2022/07/17 11:26:02;;;;;;;3.40;1.73;;;43.90;1.00;;;;;;5006741;28;20433;-84
2022/07/17 11:28:34;;;;;;;5.10;1.50;;;44.00;1.00;;;;;;5008262;28;20523;-83
2022/07/17 11:31:00;;;;;;;3.53;1.73;;;44.20;1.00;;;;;;5009531;28;20492;-83
2022/07/17 11:33:26;;;;;;;1.50;1.30;;;44.20;1.00;;;;;;5007486;28;20438;-84
2022/07/17 11:35:54;;;;;;;3.40;2.00;;;44.10;1.00;;;;;;5006495;28;20542;-84
2022/07/17 11:38:27;;;;;;;4.10;1.50;;;44.00;1.00;;;;;;5007535;28;20457;-84
2022/07/17 11:40:54;;;;;;;2.97;1.40;;;44.10;1.00;;;;;;5007358;28;20531;-83
2022/07/17 11:43:19;;;;;;;5.63;1.53;;;43.40;1.00;;;;;;5009650;28;20442;-84
2022/07/17 11:45:46;;;;;;;3.50;1.40;;;43.80;1.00;;;;;;5007494;28;20492;-83
2022/07/17 11:48:11;;;;;;;1.90;1.50;;;43.90;1.00;;;;;;5008698;28;20195;-82
2022/07/17 11:50:37;;;;;;;4.37;1.93;;;43.90;1.00;;;;;;5017983;28;20477;-84
2022/07/17 11:53:05;;;;;;;5.43;1.97;;;43.40;1.00;;;;;;5011095;28;20663;-84
2022/07/17 11:55:38;;;;;;;4.17;1.30;;;43.30;1.00;;;;;;5008998;28;20567;-84
2022/07/17 11:58:04;;;;;;;5.00;1.53;;;43.60;1.00;;;;;;5005966;28;20457;-84
2022/07/17 12:00:29;;;;;;;3.53;1.60;;;43.50;1.00;;;;;;5008598;28;20457;-84
2022/07/17 12:03:13;;;;;;;2.20;1.50;;;43.30;1.00;;;;;;5006866;28;20808;-84
2022/07/17 12:05:38;;;;;;;3.53;1.57;;;43.80;1.00;;;;;;5008233;28;20569;-85
2022/07/17 12:08:08;;;;;;;3.53;1.40;;;44.00;1.00;;;;;;5005348;28;20437;-84
2022/07/17 12:10:33;;;;;;;2.97;1.67;;;43.80;1.00;;;;;;5009528;28;20575;-84
2022/07/17 12:13:01;;;;;;;4.40;1.33;;;43.60;1.00;;;;;;5013214;28;20437;-84
2022/07/17 12:15:48;;;;;;;3.37;1.50;;;42.90;1.00;;;;;;5012185;28;20241;-84
2022/07/17 12:18:25;;;;;;;4.13;1.67;;;42.50;1.00;;;;;;5010433;28;21012;-85
2022/07/17 12:20:54;;;;;;;3.73;1.40;;;42.70;1.00;;;;;;5011397;28;20437;-84
2022/07/17 12:23:30;;;;;;;2.97;1.40;;;42.90;1.00;;;;;;5010150;28;20438;-84
2022/07/17 12:26:07;;;;;;;3.47;1.67;;;43.10;1.00;;;;;;5011339;28;20440;-84
2022/07/17 12:28:33;;;;;;;1.97;1.47;;;43.30;1.00;;;;;;5011749;28;20429;-84
2022/07/17 12:30:58;;;;;;;2.63;1.70;;;43.30;1.00;;;;;;5011058;28;20434;-84
2022/07/17 12:33:24;;;;;;;5.03;1.30;;;43.40;1.00;;;;;;5010780;28;20437;-84
2022/07/17 12:35:50;;;;;;;5.27;1.63;;;43.20;1.00;;;;;;5010761;28;20214;-85
2022/07/17 12:38:15;;;;;;;2.90;1.20;;;43.30;1.00;;;;;;5010937;28;20293;-84
2022/07/17 12:40:41;;;;;;;4.20;2.00;;;43.30;1.00;;;;;;5011989;28;20261;-84
2022/07/17 12:43:08;;;;;;;2.60;1.40;;;43.30;1.00;;;;;;5010508;28;20229;-84
2022/07/17 12:45:33;;;;;;;3.70;1.40;;;43.30;1.00;;;;;;5013465;28;20179;-84
2022/07/17 12:47:59;;;;;;;2.73;1.80;;;42.90;1.00;;;;;;5009288;28;20445;-84
2022/07/17 12:50:24;;;;;;;2.27;1.30;;;42.80;1.00;;;;;;5009604;28;20206;-84